sensor_id;sensor_type;location;lat;lon;timestamp;temperature;humidity
3850;DHT22;1940;51.052;13.678;2023-04-24T00:02:02;12.50;89.70
3850;DHT22;1940;51.052;13.678;2023-04-24T00:04:29;12.50;89.60
3850;DHT22;1940;51.052;13.678;2023-04-24T00:06:54;12.50;89.60
3850;DHT22;1940;51.052;13.678;2023-04-24T00:09:22;12.50;89.60
3850;DHT22;1940;51.052;13.678;2023-04-24T00:11:48;12.50;89.60
3850;DHT22;1940;51.052;13.678;2023-04-24T00:14:13;12.50;89.60
3850;DHT22;1940;51.052;13.678;2023-04-24T00:16:39;12.40;89.70
3850;DHT22;1940;51.052;13.678;2023-04-24T00:19:04;12.50;89.70
3850;DHT22;1940;51.052;13.678;2023-04-24T00:21:38;12.50;89.70
3850;DHT22;1940;51.052;13.678;2023-04-24T00:24:22;12.60;89.60
3850;DHT22;1940;51.052;13.678;2023-04-24T00:26:48;12.60;89.40
3850;DHT22;1940;51.052;13.678;2023-04-24T00:29:13;12.60;89.30
3850;DHT22;1940;51.052;13.678;2023-04-24T00:31:39;12.60;89.30
3850;DHT22;1940;51.052;13.678;2023-04-24T00:34:05;12.60;89.40
3850;DHT22;1940;51.052;13.678;2023-04-24T00:36:31;12.70;89.20
3850;DHT22;1940;51.052;13.678;2023-04-24T00:38:57;12.70;89.10
3850;DHT22;1940;51.052;13.678;2023-04-24T00:41:24;12.70;89.20
3850;DHT22;1940;51.052;13.678;2023-04-24T00:43:50;12.70;89.10
3850;DHT22;1940;51.052;13.678;2023-04-24T00:46:16;12.70;89.00
3850;DHT22;1940;51.052;13.678;2023-04-24T00:48:43;12.70;88.90
3850;DHT22;1940;51.052;13.678;2023-04-24T00:51:09;12.70;89.10
3850;DHT22;1940;51.052;13.678;2023-04-24T00:53:34;12.80;88.80
3850;DHT22;1940;51.052;13.678;2023-04-24T00:56:00;12.80;88.90
3850;DHT22;1940;51.052;13.678;2023-04-24T00:58:26;12.80;88.80
3850;DHT22;1940;51.052;13.678;2023-04-24T01:00:53;12.90;88.60
3850;DHT22;1940;51.052;13.678;2023-04-24T01:03:24;12.80;88.60
3850;DHT22;1940;51.052;13.678;2023-04-24T01:05:51;12.90;88.40
3850;DHT22;1940;51.052;13.678;2023-04-24T01:08:18;12.90;88.40
3850;DHT22;1940;51.052;13.678;2023-04-24T01:10:45;12.90;88.00
3850;DHT22;1940;51.052;13.678;2023-04-24T01:13:11;13.00;88.00
3850;DHT22;1940;51.052;13.678;2023-04-24T01:15:37;13.00;88.20
3850;DHT22;1940;51.052;13.678;2023-04-24T01:18:03;13.00;88.30
3850;DHT22;1940;51.052;13.678;2023-04-24T01:20:29;13.00;88.30
3850;DHT22;1940;51.052;13.678;2023-04-24T01:22:55;13.00;88.30
3850;DHT22;1940;51.052;13.678;2023-04-24T01:25:22;12.90;88.40
3850;DHT22;1940;51.052;13.678;2023-04-24T01:27:47;12.90;88.60
3850;DHT22;1940;51.052;13.678;2023-04-24T01:30:13;12.80;88.50
3850;DHT22;1940;51.052;13.678;2023-04-24T01:32:39;12.80;88.50
3850;DHT22;1940;51.052;13.678;2023-04-24T01:35:06;12.80;88.50
3850;DHT22;1940;51.052;13.678;2023-04-24T01:37:32;12.80;88.40
3850;DHT22;1940;51.052;13.678;2023-04-24T01:39:58;12.90;88.30
3850;DHT22;1940;51.052;13.678;2023-04-24T01:42:24;12.80;88.50
3850;DHT22;1940;51.052;13.678;2023-04-24T01:44:50;12.80;88.60
3850;DHT22;1940;51.052;13.678;2023-04-24T01:47:16;12.80;88.80
3850;DHT22;1940;51.052;13.678;2023-04-24T01:49:41;12.80;88.60
3850;DHT22;1940;51.052;13.678;2023-04-24T01:52:07;12.80;88.50
3850;DHT22;1940;51.052;13.678;2023-04-24T01:54:32;12.70;88.50
3850;DHT22;1940;51.052;13.678;2023-04-24T01:56:58;12.70;88.80
3850;DHT22;1940;51.052;13.678;2023-04-24T01:59:26;12.70;88.90
3850;DHT22;1940;51.052;13.678;2023-04-24T02:01:53;12.70;88.90
3850;DHT22;1940;51.052;13.678;2023-04-24T02:04:18;12.80;88.90
3850;DHT22;1940;51.052;13.678;2023-04-24T02:06:44;12.80;88.70
3850;DHT22;1940;51.052;13.678;2023-04-24T02:09:09;12.80;88.70
3850;DHT22;1940;51.052;13.678;2023-04-24T02:11:36;12.80;88.70
3850;DHT22;1940;51.052;13.678;2023-04-24T02:14:01;12.80;88.60
3850;DHT22;1940;51.052;13.678;2023-04-24T02:16:28;12.80;88.80
3850;DHT22;1940;51.052;13.678;2023-04-24T02:18:58;12.80;88.60
3850;DHT22;1940;51.052;13.678;2023-04-24T02:21:23;12.80;88.70
3850;DHT22;1940;51.052;13.678;2023-04-24T02:23:49;12.80;88.90
3850;DHT22;1940;51.052;13.678;2023-04-24T02:26:14;12.90;89.00
3850;DHT22;1940;51.052;13.678;2023-04-24T02:28:40;12.90;89.00
3850;DHT22;1940;51.052;13.678;2023-04-24T02:31:06;12.90;89.00
3850;DHT22;1940;51.052;13.678;2023-04-24T02:33:31;12.90;89.00
3850;DHT22;1940;51.052;13.678;2023-04-24T02:35:57;12.90;89.10
3850;DHT22;1940;51.052;13.678;2023-04-24T02:38:22;12.90;88.90
3850;DHT22;1940;51.052;13.678;2023-04-24T02:40:48;12.90;89.00
3850;DHT22;1940;51.052;13.678;2023-04-24T02:43:13;12.90;88.90
3850;DHT22;1940;51.052;13.678;2023-04-24T02:45:39;13.00;89.00
3850;DHT22;1940;51.052;13.678;2023-04-24T02:48:04;13.00;88.90
3850;DHT22;1940;51.052;13.678;2023-04-24T02:50:30;12.90;89.00
3850;DHT22;1940;51.052;13.678;2023-04-24T02:52:55;12.80;89.20
3850;DHT22;1940;51.052;13.678;2023-04-24T02:55:21;12.80;89.10
3850;DHT22;1940;51.052;13.678;2023-04-24T02:57:46;12.80;89.10
3850;DHT22;1940;51.052;13.678;2023-04-24T03:00:12;12.90;89.20
3850;DHT22;1940;51.052;13.678;2023-04-24T03:02:38;12.80;89.20
3850;DHT22;1940;51.052;13.678;2023-04-24T03:05:04;12.80;89.30
3850;DHT22;1940;51.052;13.678;2023-04-24T03:07:30;12.80;89.20
3850;DHT22;1940;51.052;13.678;2023-04-24T03:09:56;12.80;89.30
3850;DHT22;1940;51.052;13.678;2023-04-24T03:12:23;12.70;89.50
3850;DHT22;1940;51.052;13.678;2023-04-24T03:14:49;12.60;89.80
3850;DHT22;1940;51.052;13.678;2023-04-24T03:17:15;12.60;90.00
3850;DHT22;1940;51.052;13.678;2023-04-24T03:19:40;12.70;89.60
3850;DHT22;1940;51.052;13.678;2023-04-24T03:22:06;12.60;89.80
3850;DHT22;1940;51.052;13.678;2023-04-24T03:24:31;12.60;89.80
3850;DHT22;1940;51.052;13.678;2023-04-24T03:26:57;12.60;90.00
3850;DHT22;1940;51.052;13.678;2023-04-24T03:29:22;12.70;89.90
3850;DHT22;1940;51.052;13.678;2023-04-24T03:31:48;12.70;89.80
3850;DHT22;1940;51.052;13.678;2023-04-24T03:34:13;12.60;90.00
3850;DHT22;1940;51.052;13.678;2023-04-24T03:36:39;12.70;89.90
3850;DHT22;1940;51.052;13.678;2023-04-24T03:39:05;12.70;89.90
3850;DHT22;1940;51.052;13.678;2023-04-24T03:41:30;12.70;89.90
3850;DHT22;1940;51.052;13.678;2023-04-24T03:43:56;12.60;89.50
3850;DHT22;1940;51.052;13.678;2023-04-24T03:46:21;12.60;89.10
3850;DHT22;1940;51.052;13.678;2023-04-24T03:48:47;12.60;86.80
3850;DHT22;1940;51.052;13.678;2023-04-24T03:51:12;12.70;87.00
3850;DHT22;1940;51.052;13.678;2023-04-24T03:53:38;12.70;87.10
3850;DHT22;1940;51.052;13.678;2023-04-24T03:56:03;12.80;86.80
3850;DHT22;1940;51.052;13.678;2023-04-24T03:58:29;12.80;86.30
3850;DHT22;1940;51.052;13.678;2023-04-24T04:00:54;12.90;85.60
3850;DHT22;1940;51.052;13.678;2023-04-24T04:03:22;12.90;84.80
3850;DHT22;1940;51.052;13.678;2023-04-24T04:05:47;13.00;84.20
3850;DHT22;1940;51.052;13.678;2023-04-24T04:08:13;13.10;83.20
3850;DHT22;1940;51.052;13.678;2023-04-24T04:10:38;13.10;83.50
3850;DHT22;1940;51.052;13.678;2023-04-24T04:13:04;13.10;83.20
3850;DHT22;1940;51.052;13.678;2023-04-24T04:15:31;13.30;83.00
3850;DHT22;1940;51.052;13.678;2023-04-24T04:17:56;13.40;82.00
3850;DHT22;1940;51.052;13.678;2023-04-24T04:20:22;13.50;81.80
3850;DHT22;1940;51.052;13.678;2023-04-24T04:22:48;13.50;81.30
3850;DHT22;1940;51.052;13.678;2023-04-24T04:25:13;13.60;80.30
3850;DHT22;1940;51.052;13.678;2023-04-24T04:27:39;13.50;80.30
3850;DHT22;1940;51.052;13.678;2023-04-24T04:30:07;13.50;80.60
3850;DHT22;1940;51.052;13.678;2023-04-24T04:32:34;13.50;79.80
3850;DHT22;1940;51.052;13.678;2023-04-24T04:35:00;13.60;79.80
3850;DHT22;1940;51.052;13.678;2023-04-24T04:37:32;13.50;79.70
3850;DHT22;1940;51.052;13.678;2023-04-24T04:39:59;13.50;79.70
3850;DHT22;1940;51.052;13.678;2023-04-24T04:42:25;13.50;79.70
3850;DHT22;1940;51.052;13.678;2023-04-24T04:44:52;13.60;79.80
3850;DHT22;1940;51.052;13.678;2023-04-24T04:47:17;13.70;79.10
3850;DHT22;1940;51.052;13.678;2023-04-24T04:49:43;13.70;79.20
3850;DHT22;1940;51.052;13.678;2023-04-24T04:52:09;13.80;78.90
3850;DHT22;1940;51.052;13.678;2023-04-24T04:54:35;13.80;79.30
3850;DHT22;1940;51.052;13.678;2023-04-24T04:57:00;14.00;79.00
3850;DHT22;1940;51.052;13.678;2023-04-24T04:59:27;14.00;78.30
3850;DHT22;1940;51.052;13.678;2023-04-24T05:01:52;14.10;78.00
3850;DHT22;1940;51.052;13.678;2023-04-24T05:04:18;14.20;78.00
3850;DHT22;1940;51.052;13.678;2023-04-24T05:06:43;14.30;77.70
3850;DHT22;1940;51.052;13.678;2023-04-24T05:09:09;14.40;77.90
3850;DHT22;1940;51.052;13.678;2023-04-24T05:11:35;14.60;77.30
3850;DHT22;1940;51.052;13.678;2023-04-24T05:14:00;14.70;76.00
3850;DHT22;1940;51.052;13.678;2023-04-24T05:16:26;14.70;75.40
3850;DHT22;1940;51.052;13.678;2023-04-24T05:18:51;14.80;75.00
3850;DHT22;1940;51.052;13.678;2023-04-24T05:21:17;14.90;75.30
3850;DHT22;1940;51.052;13.678;2023-04-24T05:23:43;15.00;74.80
3850;DHT22;1940;51.052;13.678;2023-04-24T05:26:08;15.10;74.40
3850;DHT22;1940;51.052;13.678;2023-04-24T05:28:34;15.20;73.90
3850;DHT22;1940;51.052;13.678;2023-04-24T05:31:02;15.40;73.60
3850;DHT22;1940;51.052;13.678;2023-04-24T05:33:27;15.20;73.50
3850;DHT22;1940;51.052;13.678;2023-04-24T05:35:53;15.20;73.80
3850;DHT22;1940;51.052;13.678;2023-04-24T05:38:18;15.10;73.90
3850;DHT22;1940;51.052;13.678;2023-04-24T05:40:45;15.10;74.30
3850;DHT22;1940;51.052;13.678;2023-04-24T05:43:11;15.20;73.80
3850;DHT22;1940;51.052;13.678;2023-04-24T05:45:36;15.40;73.50
3850;DHT22;1940;51.052;13.678;2023-04-24T05:48:03;15.40;73.30
3850;DHT22;1940;51.052;13.678;2023-04-24T05:50:28;15.50;72.80
3850;DHT22;1940;51.052;13.678;2023-04-24T05:52:54;15.50;72.40
3850;DHT22;1940;51.052;13.678;2023-04-24T05:55:20;15.50;72.80
3850;DHT22;1940;51.052;13.678;2023-04-24T05:57:45;15.50;73.30
3850;DHT22;1940;51.052;13.678;2023-04-24T06:00:11;15.50;73.00
3850;DHT22;1940;51.052;13.678;2023-04-24T06:02:38;15.60;72.70
3850;DHT22;1940;51.052;13.678;2023-04-24T06:05:04;15.70;72.80
3850;DHT22;1940;51.052;13.678;2023-04-24T06:07:32;15.80;71.90
3850;DHT22;1940;51.052;13.678;2023-04-24T06:09:58;15.70;72.50
3850;DHT22;1940;51.052;13.678;2023-04-24T06:12:23;15.90;72.50
3850;DHT22;1940;51.052;13.678;2023-04-24T06:14:49;16.00;72.10
3850;DHT22;1940;51.052;13.678;2023-04-24T06:17:15;16.00;72.00
3850;DHT22;1940;51.052;13.678;2023-04-24T06:19:40;16.20;71.60
3850;DHT22;1940;51.052;13.678;2023-04-24T06:22:06;16.50;70.60
3850;DHT22;1940;51.052;13.678;2023-04-24T06:24:31;16.50;69.40
3850;DHT22;1940;51.052;13.678;2023-04-24T06:26:57;16.60;69.80
3850;DHT22;1940;51.052;13.678;2023-04-24T06:29:24;16.80;70.10
3850;DHT22;1940;51.052;13.678;2023-04-24T06:31:49;16.70;69.30
3850;DHT22;1940;51.052;13.678;2023-04-24T06:34:15;16.60;69.10
3850;DHT22;1940;51.052;13.678;2023-04-24T06:36:41;16.50;69.50
3850;DHT22;1940;51.052;13.678;2023-04-24T06:39:06;16.40;69.90
3850;DHT22;1940;51.052;13.678;2023-04-24T06:41:32;16.40;70.00
3850;DHT22;1940;51.052;13.678;2023-04-24T06:43:57;16.40;69.90
3850;DHT22;1940;51.052;13.678;2023-04-24T06:46:23;16.30;70.50
3850;DHT22;1940;51.052;13.678;2023-04-24T06:48:51;16.50;70.00
3850;DHT22;1940;51.052;13.678;2023-04-24T06:51:17;16.50;69.80
3850;DHT22;1940;51.052;13.678;2023-04-24T06:53:43;16.60;70.50
3850;DHT22;1940;51.052;13.678;2023-04-24T06:56:09;16.80;69.80
3850;DHT22;1940;51.052;13.678;2023-04-24T06:58:34;16.90;69.50
3850;DHT22;1940;51.052;13.678;2023-04-24T07:01:00;16.70;69.10
3850;DHT22;1940;51.052;13.678;2023-04-24T07:03:25;16.90;68.70
3850;DHT22;1940;51.052;13.678;2023-04-24T07:05:51;16.80;69.10
3850;DHT22;1940;51.052;13.678;2023-04-24T07:08:16;17.00;68.90
3850;DHT22;1940;51.052;13.678;2023-04-24T07:10:48;17.10;67.90
3850;DHT22;1940;51.052;13.678;2023-04-24T07:13:14;17.40;67.70
3850;DHT22;1940;51.052;13.678;2023-04-24T07:15:40;17.70;66.70
3850;DHT22;1940;51.052;13.678;2023-04-24T07:18:06;17.60;66.90
3850;DHT22;1940;51.052;13.678;2023-04-24T07:20:32;17.20;67.30
3850;DHT22;1940;51.052;13.678;2023-04-24T07:22:58;17.00;67.40
3850;DHT22;1940;51.052;13.678;2023-04-24T07:25:23;16.90;68.10
3850;DHT22;1940;51.052;13.678;2023-04-24T07:27:49;16.80;69.10
3850;DHT22;1940;51.052;13.678;2023-04-24T07:30:15;16.80;69.00
3850;DHT22;1940;51.052;13.678;2023-04-24T07:32:42;16.80;68.70
3850;DHT22;1940;51.052;13.678;2023-04-24T07:35:07;16.80;68.80
3850;DHT22;1940;51.052;13.678;2023-04-24T07:37:35;16.90;68.30
3850;DHT22;1940;51.052;13.678;2023-04-24T07:40:00;16.90;68.30
3850;DHT22;1940;51.052;13.678;2023-04-24T07:42:26;16.90;68.30
3850;DHT22;1940;51.052;13.678;2023-04-24T07:44:51;17.00;68.40
3850;DHT22;1940;51.052;13.678;2023-04-24T07:47:17;17.10;67.70
3850;DHT22;1940;51.052;13.678;2023-04-24T07:49:42;16.90;68.00
3850;DHT22;1940;51.052;13.678;2023-04-24T07:52:08;17.00;68.10
3850;DHT22;1940;51.052;13.678;2023-04-24T07:54:34;17.10;67.60
3850;DHT22;1940;51.052;13.678;2023-04-24T07:56:59;17.30;67.40
3850;DHT22;1940;51.052;13.678;2023-04-24T07:59:26;17.40;67.70
3850;DHT22;1940;51.052;13.678;2023-04-24T08:01:51;17.60;67.50
3850;DHT22;1940;51.052;13.678;2023-04-24T08:04:17;17.70;66.90
3850;DHT22;1940;51.052;13.678;2023-04-24T08:06:43;17.80;67.20
3850;DHT22;1940;51.052;13.678;2023-04-24T08:09:09;18.10;65.80
3850;DHT22;1940;51.052;13.678;2023-04-24T08:11:35;18.20;65.30
3850;DHT22;1940;51.052;13.678;2023-04-24T08:14:00;18.60;64.70
3850;DHT22;1940;51.052;13.678;2023-04-24T08:16:26;19.10;62.60
3850;DHT22;1940;51.052;13.678;2023-04-24T08:18:52;19.20;62.00
3850;DHT22;1940;51.052;13.678;2023-04-24T08:21:18;19.30;61.50
3850;DHT22;1940;51.052;13.678;2023-04-24T08:23:45;19.40;61.30
3850;DHT22;1940;51.052;13.678;2023-04-24T08:26:11;18.80;62.50
3850;DHT22;1940;51.052;13.678;2023-04-24T08:28:37;18.50;63.10
3850;DHT22;1940;51.052;13.678;2023-04-24T08:31:03;18.60;63.90
3850;DHT22;1940;51.052;13.678;2023-04-24T08:33:29;18.60;64.00
3850;DHT22;1940;51.052;13.678;2023-04-24T08:36:03;18.60;64.60
3850;DHT22;1940;51.052;13.678;2023-04-24T08:38:28;18.60;64.30
3850;DHT22;1940;51.052;13.678;2023-04-24T08:40:54;18.70;64.40
3850;DHT22;1940;51.052;13.678;2023-04-24T08:43:25;18.90;63.00
3850;DHT22;1940;51.052;13.678;2023-04-24T08:45:52;18.80;62.80
3850;DHT22;1940;51.052;13.678;2023-04-24T08:48:18;18.80;63.00
3850;DHT22;1940;51.052;13.678;2023-04-24T08:50:44;19.00;62.20
3850;DHT22;1940;51.052;13.678;2023-04-24T08:53:10;18.90;62.50
3850;DHT22;1940;51.052;13.678;2023-04-24T08:55:36;19.00;62.60
3850;DHT22;1940;51.052;13.678;2023-04-24T08:58:03;18.90;62.40
3850;DHT22;1940;51.052;13.678;2023-04-24T09:00:29;18.90;61.90
3850;DHT22;1940;51.052;13.678;2023-04-24T09:02:56;18.60;61.00
3850;DHT22;1940;51.052;13.678;2023-04-24T09:05:22;18.60;62.00
3850;DHT22;1940;51.052;13.678;2023-04-24T09:07:54;18.80;61.70
3850;DHT22;1940;51.052;13.678;2023-04-24T09:10:21;18.90;60.50
3850;DHT22;1940;51.052;13.678;2023-04-24T09:12:47;19.30;60.40
3850;DHT22;1940;51.052;13.678;2023-04-24T09:15:13;19.40;60.40
3850;DHT22;1940;51.052;13.678;2023-04-24T09:17:39;19.70;59.70
3850;DHT22;1940;51.052;13.678;2023-04-24T09:20:05;19.50;59.50
3850;DHT22;1940;51.052;13.678;2023-04-24T09:22:31;19.20;60.40
3850;DHT22;1940;51.052;13.678;2023-04-24T09:25:02;19.50;60.40
3850;DHT22;1940;51.052;13.678;2023-04-24T09:27:28;19.60;59.50
3850;DHT22;1940;51.052;13.678;2023-04-24T09:29:55;19.40;60.50
3850;DHT22;1940;51.052;13.678;2023-04-24T09:32:22;19.30;61.00
3850;DHT22;1940;51.052;13.678;2023-04-24T09:34:48;19.10;60.20
3850;DHT22;1940;51.052;13.678;2023-04-24T09:37:35;18.80;60.50
3850;DHT22;1940;51.052;13.678;2023-04-24T09:40:21;18.60;61.00
3850;DHT22;1940;51.052;13.678;2023-04-24T09:42:55;18.50;61.70
3850;DHT22;1940;51.052;13.678;2023-04-24T09:45:22;18.60;61.60
3850;DHT22;1940;51.052;13.678;2023-04-24T09:47:52;18.60;60.40
3850;DHT22;1940;51.052;13.678;2023-04-24T09:50:19;18.50;61.20
3850;DHT22;1940;51.052;13.678;2023-04-24T09:52:56;18.30;61.70
3850;DHT22;1940;51.052;13.678;2023-04-24T09:55:22;18.40;62.00
3850;DHT22;1940;51.052;13.678;2023-04-24T09:57:59;18.50;61.20
3850;DHT22;1940;51.052;13.678;2023-04-24T10:00:32;18.70;61.40
3850;DHT22;1940;51.052;13.678;2023-04-24T10:02:59;18.80;60.90
3850;DHT22;1940;51.052;13.678;2023-04-24T10:05:33;18.60;60.70
3850;DHT22;1940;51.052;13.678;2023-04-24T10:08:04;18.30;61.00
3850;DHT22;1940;51.052;13.678;2023-04-24T10:10:35;18.10;62.10
3850;DHT22;1940;51.052;13.678;2023-04-24T10:13:02;18.10;61.50
3850;DHT22;1940;51.052;13.678;2023-04-24T10:15:28;18.40;61.60
3850;DHT22;1940;51.052;13.678;2023-04-24T10:17:54;18.40;60.80
3850;DHT22;1940;51.052;13.678;2023-04-24T10:20:26;18.30;61.80
3850;DHT22;1940;51.052;13.678;2023-04-24T10:22:53;18.20;61.50
3850;DHT22;1940;51.052;13.678;2023-04-24T10:25:21;18.40;62.30
3850;DHT22;1940;51.052;13.678;2023-04-24T10:27:47;18.80;62.00
3850;DHT22;1940;51.052;13.678;2023-04-24T10:30:14;19.80;59.60
3850;DHT22;1940;51.052;13.678;2023-04-24T10:32:39;20.80;57.30
3850;DHT22;1940;51.052;13.678;2023-04-24T10:35:09;21.30;56.20
3850;DHT22;1940;51.052;13.678;2023-04-24T10:37:39;21.40;56.00
3850;DHT22;1940;51.052;13.678;2023-04-24T10:40:07;21.80;54.70
3850;DHT22;1940;51.052;13.678;2023-04-24T10:42:34;22.00;53.70
3850;DHT22;1940;51.052;13.678;2023-04-24T10:45:04;21.40;55.00
3850;DHT22;1940;51.052;13.678;2023-04-24T10:47:30;20.50;56.50
3850;DHT22;1940;51.052;13.678;2023-04-24T10:50:09;20.00;58.20
3850;DHT22;1940;51.052;13.678;2023-04-24T10:52:45;19.60;58.80
3850;DHT22;1940;51.052;13.678;2023-04-24T10:55:12;19.60;58.50
3850;DHT22;1940;51.052;13.678;2023-04-24T10:57:38;19.40;58.30
3850;DHT22;1940;51.052;13.678;2023-04-24T11:00:14;19.10;58.90
3850;DHT22;1940;51.052;13.678;2023-04-24T11:02:40;19.10;60.10
3850;DHT22;1940;51.052;13.678;2023-04-24T11:05:15;18.80;61.30
3850;DHT22;1940;51.052;13.678;2023-04-24T11:08:13;19.00;60.80
3850;DHT22;1940;51.052;13.678;2023-04-24T11:10:43;19.00;60.50
3850;DHT22;1940;51.052;13.678;2023-04-24T11:13:09;18.80;61.00
3850;DHT22;1940;51.052;13.678;2023-04-24T11:15:35;18.50;62.00
3850;DHT22;1940;51.052;13.678;2023-04-24T11:18:00;18.20;62.70
3850;DHT22;1940;51.052;13.678;2023-04-24T11:20:26;17.80;63.10
3850;DHT22;1940;51.052;13.678;2023-04-24T11:22:53;17.80;63.50
3850;DHT22;1940;51.052;13.678;2023-04-24T11:25:21;17.90;63.20
3850;DHT22;1940;51.052;13.678;2023-04-24T11:27:48;18.00;63.70
3850;DHT22;1940;51.052;13.678;2023-04-24T11:30:18;18.00;64.20
3850;DHT22;1940;51.052;13.678;2023-04-24T11:32:47;18.20;63.10
3850;DHT22;1940;51.052;13.678;2023-04-24T11:35:21;18.70;62.30
3850;DHT22;1940;51.052;13.678;2023-04-24T11:37:52;19.00;60.20
3850;DHT22;1940;51.052;13.678;2023-04-24T11:40:19;18.80;60.60
3850;DHT22;1940;51.052;13.678;2023-04-24T11:42:50;18.80;61.10
3850;DHT22;1940;51.052;13.678;2023-04-24T11:45:27;19.20;60.60
3850;DHT22;1940;51.052;13.678;2023-04-24T11:47:53;19.80;59.90
3850;DHT22;1940;51.052;13.678;2023-04-24T11:50:20;19.80;59.10
3850;DHT22;1940;51.052;13.678;2023-04-24T11:52:48;19.70;58.40
3850;DHT22;1940;51.052;13.678;2023-04-24T11:57:39;19.30;59.60
3850;DHT22;1940;51.052;13.678;2023-04-24T12:00:14;18.90;61.30
3850;DHT22;1940;51.052;13.678;2023-04-24T12:02:40;18.70;61.30
3850;DHT22;1940;51.052;13.678;2023-04-24T12:05:05;18.60;62.10
3850;DHT22;1940;51.052;13.678;2023-04-24T12:07:41;18.30;61.60
3850;DHT22;1940;51.052;13.678;2023-04-24T12:10:10;18.00;62.20
3850;DHT22;1940;51.052;13.678;2023-04-24T12:12:36;17.70;62.00
3850;DHT22;1940;51.052;13.678;2023-04-24T12:15:07;17.50;63.20
3850;DHT22;1940;51.052;13.678;2023-04-24T12:17:34;17.50;61.80
3850;DHT22;1940;51.052;13.678;2023-04-24T12:20:01;17.70;62.00
3850;DHT22;1940;51.052;13.678;2023-04-24T12:22:28;17.70;60.80
3850;DHT22;1940;51.052;13.678;2023-04-24T12:25:02;17.60;59.10
3850;DHT22;1940;51.052;13.678;2023-04-24T12:27:30;17.40;58.40
3850;DHT22;1940;51.052;13.678;2023-04-24T12:29:58;17.40;58.40
3850;DHT22;1940;51.052;13.678;2023-04-24T12:32:24;17.50;58.00
3850;DHT22;1940;51.052;13.678;2023-04-24T12:34:51;17.80;59.00
3850;DHT22;1940;51.052;13.678;2023-04-24T12:37:19;18.00;56.90
3850;DHT22;1940;51.052;13.678;2023-04-24T12:40:02;18.30;57.80
3850;DHT22;1940;51.052;13.678;2023-04-24T12:42:29;18.60;56.50
3850;DHT22;1940;51.052;13.678;2023-04-24T12:45:03;18.70;56.60
3850;DHT22;1940;51.052;13.678;2023-04-24T12:47:31;18.50;57.60
3850;DHT22;1940;51.052;13.678;2023-04-24T12:49:57;18.40;57.00
3850;DHT22;1940;51.052;13.678;2023-04-24T12:52:23;18.20;56.20
3850;DHT22;1940;51.052;13.678;2023-04-24T12:54:50;18.00;56.70
3850;DHT22;1940;51.052;13.678;2023-04-24T12:57:17;17.90;57.40
3850;DHT22;1940;51.052;13.678;2023-04-24T12:59:44;18.10;56.70
3850;DHT22;1940;51.052;13.678;2023-04-24T13:02:10;18.20;56.30
3850;DHT22;1940;51.052;13.678;2023-04-24T13:04:36;18.40;57.10
3850;DHT22;1940;51.052;13.678;2023-04-24T13:07:02;18.60;56.30
3850;DHT22;1940;51.052;13.678;2023-04-24T13:09:27;18.80;54.10
3850;DHT22;1940;51.052;13.678;2023-04-24T13:11:54;19.10;51.90
3850;DHT22;1940;51.052;13.678;2023-04-24T13:14:21;19.10;52.30
3850;DHT22;1940;51.052;13.678;2023-04-24T13:16:47;19.20;51.40
3850;DHT22;1940;51.052;13.678;2023-04-24T13:19:12;19.10;52.90
3850;DHT22;1940;51.052;13.678;2023-04-24T13:21:38;19.10;54.50
3850;DHT22;1940;51.052;13.678;2023-04-24T13:24:03;18.90;54.90
3850;DHT22;1940;51.052;13.678;2023-04-24T13:26:30;18.70;55.60
3850;DHT22;1940;51.052;13.678;2023-04-24T13:28:55;18.40;55.10
3850;DHT22;1940;51.052;13.678;2023-04-24T13:31:21;18.30;54.20
3850;DHT22;1940;51.052;13.678;2023-04-24T13:33:46;18.50;55.90
3850;DHT22;1940;51.052;13.678;2023-04-24T13:36:12;18.50;54.40
3850;DHT22;1940;51.052;13.678;2023-04-24T13:38:37;18.30;53.80
3850;DHT22;1940;51.052;13.678;2023-04-24T13:41:03;18.30;51.10
3850;DHT22;1940;51.052;13.678;2023-04-24T13:43:28;18.30;51.00
3850;DHT22;1940;51.052;13.678;2023-04-24T13:45:54;18.10;52.00
3850;DHT22;1940;51.052;13.678;2023-04-24T13:48:19;17.70;52.00
3850;DHT22;1940;51.052;13.678;2023-04-24T13:50:46;17.30;53.30
3850;DHT22;1940;51.052;13.678;2023-04-24T13:53:13;17.20;53.70
3850;DHT22;1940;51.052;13.678;2023-04-24T13:55:39;17.50;54.10
3850;DHT22;1940;51.052;13.678;2023-04-24T13:58:04;17.70;53.50
3850;DHT22;1940;51.052;13.678;2023-04-24T14:00:31;17.80;54.10
3850;DHT22;1940;51.052;13.678;2023-04-24T14:02:56;18.10;53.50
3850;DHT22;1940;51.052;13.678;2023-04-24T14:05:22;18.20;52.50
3850;DHT22;1940;51.052;13.678;2023-04-24T14:07:47;18.20;52.60
3850;DHT22;1940;51.052;13.678;2023-04-24T14:10:13;18.20;52.70
3850;DHT22;1940;51.052;13.678;2023-04-24T14:12:38;18.30;53.20
3850;DHT22;1940;51.052;13.678;2023-04-24T14:15:04;18.30;53.80
3850;DHT22;1940;51.052;13.678;2023-04-24T14:17:30;18.20;52.10
3850;DHT22;1940;51.052;13.678;2023-04-24T14:19:56;18.30;52.20
3850;DHT22;1940;51.052;13.678;2023-04-24T14:22:22;18.40;52.20
3850;DHT22;1940;51.052;13.678;2023-04-24T14:24:47;18.40;52.20
3850;DHT22;1940;51.052;13.678;2023-04-24T14:27:13;18.50;51.70
3850;DHT22;1940;51.052;13.678;2023-04-24T14:29:38;18.50;53.30
3850;DHT22;1940;51.052;13.678;2023-04-24T14:32:04;18.70;53.80
3850;DHT22;1940;51.052;13.678;2023-04-24T14:34:29;18.70;51.40
3850;DHT22;1940;51.052;13.678;2023-04-24T14:36:55;18.50;51.80
3850;DHT22;1940;51.052;13.678;2023-04-24T14:39:20;18.60;52.70
3850;DHT22;1940;51.052;13.678;2023-04-24T14:41:46;18.60;53.10
3850;DHT22;1940;51.052;13.678;2023-04-24T14:44:12;18.40;53.60
3850;DHT22;1940;51.052;13.678;2023-04-24T14:46:37;18.30;54.30
3850;DHT22;1940;51.052;13.678;2023-04-24T14:49:03;18.00;53.90
3850;DHT22;1940;51.052;13.678;2023-04-24T14:51:28;17.90;54.20
3850;DHT22;1940;51.052;13.678;2023-04-24T14:53:54;17.70;53.90
3850;DHT22;1940;51.052;13.678;2023-04-24T14:56:19;17.70;53.90
3850;DHT22;1940;51.052;13.678;2023-04-24T14:58:45;17.60;53.60
3850;DHT22;1940;51.052;13.678;2023-04-24T15:01:11;17.40;52.60
3850;DHT22;1940;51.052;13.678;2023-04-24T15:03:36;17.40;53.10
3850;DHT22;1940;51.052;13.678;2023-04-24T15:06:02;17.50;53.10
3850;DHT22;1940;51.052;13.678;2023-04-24T15:08:27;17.60;52.80
3850;DHT22;1940;51.052;13.678;2023-04-24T15:10:53;17.70;52.10
3850;DHT22;1940;51.052;13.678;2023-04-24T15:13:19;17.70;52.70
3850;DHT22;1940;51.052;13.678;2023-04-24T15:15:46;17.60;52.30
3850;DHT22;1940;51.052;13.678;2023-04-24T15:18:12;17.60;51.50
3850;DHT22;1940;51.052;13.678;2023-04-24T15:20:38;17.60;51.60
3850;DHT22;1940;51.052;13.678;2023-04-24T15:23:09;17.50;51.60
3850;DHT22;1940;51.052;13.678;2023-04-24T15:25:36;17.30;51.10
3850;DHT22;1940;51.052;13.678;2023-04-24T15:28:01;17.00;52.30
3850;DHT22;1940;51.052;13.678;2023-04-24T15:30:27;17.00;52.50
3850;DHT22;1940;51.052;13.678;2023-04-24T15:32:53;17.00;54.80
3850;DHT22;1940;51.052;13.678;2023-04-24T15:35:18;16.90;54.00
3850;DHT22;1940;51.052;13.678;2023-04-24T15:37:44;16.80;53.80
3850;DHT22;1940;51.052;13.678;2023-04-24T15:40:10;16.70;54.50
3850;DHT22;1940;51.052;13.678;2023-04-24T15:42:38;16.60;55.30
3850;DHT22;1940;51.052;13.678;2023-04-24T15:45:04;16.60;55.70